Time;durP1;ratioP1;P1;durP2;ratioP2;P2;SDS_P1;SDS_P2;PMS_P1;PMS_P2;Temp;Humidity;BMP_temperature;BMP_pressure;BME280_temperature;BME280_humidity;BME280_pressure;Samples;Min_cycle;Max_cycle;Signal;HPM_P1;HPM_P2
2023/10/20 00:00:59;;;;;;;10.85;7.05;;;;;;;14.26;100.00;98467.84;5071587;28;20104;-61
2023/10/20 00:03:47;;;;;;;14.05;7.28;;;;;;;14.25;100.00;98454.47;5075485;28;20072;-60
2023/10/20 00:06:38;;;;;;;11.48;7.07;;;;;;;14.24;100.00;98458.38;5080925;28;20052;-64
2023/10/20 00:09:27;;;;;;;15.65;6.97;;;;;;;14.23;100.00;98462.25;5079064;28;20052;-64
2023/10/20 00:12:15;;;;;;;10.50;7.50;;;;;;;14.22;100.00;98449.72;5072007;28;20052;-65
2023/10/20 00:15:04;;;;;;;13.45;7.07;;;;;;;14.21;100.00;98448.09;5025013;28;20131;-65
2023/10/20 00:17:52;;;;;;;9.90;7.28;;;;;;;14.22;100.00;98449.72;5053715;28;20079;-64
2023/10/20 00:20:39;;;;;;;12.73;7.55;;;;;;;14.21;100.00;98442.63;5056902;28;20057;-65
2023/10/20 00:23:27;;;;;;;10.48;7.13;;;;;;;14.21;100.00;98437.13;5063458;28;20064;-65
2023/10/20 00:26:16;;;;;;;13.75;7.32;;;;;;;14.21;100.00;98437.13;5056093;28;20394;-65
2023/10/20 00:29:08;;;;;;;14.00;7.53;;;;;;;14.20;100.00;98430.09;5057500;28;20052;-63
2023/10/20 00:31:58;;;;;;;13.15;7.63;;;;;;;14.19;100.00;98428.47;5075266;28;20075;-64
2023/10/20 00:34:46;;;;;;;10.63;6.95;;;;;;;14.17;100.00;98425.31;5075163;28;20052;-64
2023/10/20 00:37:35;;;;;;;11.13;7.00;;;;;;;14.18;100.00;98421.41;5075163;28;20178;-64
2023/10/20 00:40:23;;;;;;;17.15;8.63;;;;;;;14.16;100.00;98419.03;5049284;28;20047;-64
2023/10/20 00:43:11;;;;;;;13.63;7.35;;;;;;;14.16;100.00;98404.53;5060063;28;20135;-64
2023/10/20 00:45:59;;;;;;;12.48;8.35;;;;;;;14.15;100.00;98401.00;5073816;28;20049;-64
2023/10/20 00:48:48;;;;;;;18.73;8.32;;;;;;;14.14;100.00;98390.41;5061312;28;20519;-64
2023/10/20 00:51:36;;;;;;;11.80;7.78;;;;;;;14.12;100.00;98376.25;5072516;28;20056;-64
2023/10/20 00:54:24;;;;;;;13.93;8.15;;;;;;;14.11;100.00;98367.25;5060608;28;20072;-64
2023/10/20 00:57:16;;;;;;;12.40;7.57;;;;;;;14.11;100.00;98361.00;5074782;28;20561;-64
2023/10/20 01:00:04;;;;;;;12.82;7.35;;;;;;;14.10;100.00;98362.94;5060547;28;20083;-64
2023/10/20 01:02:53;;;;;;;10.40;8.13;;;;;;;14.09;100.00;98364.06;5028788;28;20047;-64
2023/10/20 01:05:41;;;;;;;10.40;7.72;;;;;;;14.06;100.00;98351.88;5027425;28;20045;-66
2023/10/20 01:08:30;;;;;;;12.80;8.20;;;;;;;14.05;100.00;98349.50;5059749;28;20044;-65
2023/10/20 01:11:18;;;;;;;14.23;7.93;;;;;;;14.02;100.00;98337.31;5058819;28;20523;-63
2023/10/20 01:14:07;;;;;;;12.90;7.40;;;;;;;14.03;100.00;98332.63;5059346;28;20056;-64
2023/10/20 01:16:55;;;;;;;15.55;7.38;;;;;;;14.04;100.00;98340.47;5060263;28;20047;-64
2023/10/20 01:19:44;;;;;;;14.32;8.55;;;;;;;14.03;100.00;98336.16;5059268;28;20512;-63
2023/10/20 01:22:32;;;;;;;11.82;8.10;;;;;;;14.02;100.00;98326.38;5058122;28;20091;-65
2023/10/20 01:25:22;;;;;;;16.83;9.20;;;;;;;13.96;100.00;98316.81;5038481;28;20493;-66
2023/10/20 01:28:10;;;;;;;14.77;9.02;;;;;;;13.94;100.00;98316.38;5051281;28;20049;-66
2023/10/20 01:30:58;;;;;;;13.60;8.48;;;;;;;13.91;100.00;98295.19;5075314;28;20055;-63
2023/10/20 01:33:46;;;;;;;12.93;8.18;;;;;;;13.91;100.00;98289.69;5061658;28;20143;-64
2023/10/20 01:36:35;;;;;;;12.35;8.55;;;;;;;13.92;100.00;98287.75;5073800;28;20051;-64
2023/10/20 01:39:23;;;;;;;18.02;9.52;;;;;;;13.89;100.00;98278.31;5061232;28;20111;-64
2023/10/20 01:42:11;;;;;;;13.43;8.98;;;;;;;13.88;100.00;98282.19;5075572;28;20122;-63
2023/10/20 01:44:59;;;;;;;14.48;9.75;;;;;;;13.87;100.00;98286.06;5059123;28;20036;-64
2023/10/20 01:47:47;;;;;;;14.35;9.43;;;;;;;13.88;100.00;98284.94;5058970;28;20048;-64
2023/10/20 01:50:35;;;;;;;14.63;9.05;;;;;;;13.87;100.00;98291.53;5074735;28;20082;-64
2023/10/20 01:53:25;;;;;;;13.55;9.93;;;;;;;13.86;100.00;98284.50;5058857;28;20051;-65
2023/10/20 01:56:13;;;;;;;14.60;9.05;;;;;;;13.85;100.00;98289.19;5074049;28;20048;-64
2023/10/20 01:59:03;;;;;;;15.05;9.90;;;;;;;13.83;100.00;98277.00;5066648;28;20051;-64
2023/10/20 02:01:51;;;;;;;12.00;9.45;;;;;;;13.82;100.00;98264.44;5073485;28;20047;-65
2023/10/20 02:04:39;;;;;;;17.33;10.90;;;;;;;13.82;100.00;98256.22;5069360;28;20067;-66
2023/10/20 02:07:27;;;;;;;13.50;9.13;;;;;;;13.82;100.00;98248.03;5059102;28;20048;-65
2023/10/20 02:10:15;;;;;;;12.95;8.85;;;;;;;13.83;100.00;98241.41;5057465;28;20044;-63
2023/10/20 02:13:04;;;;;;;15.20;9.25;;;;;;;13.85;100.00;98236.34;5058325;28;20070;-64
2023/10/20 02:15:53;;;;;;;16.98;9.02;;;;;;;13.86;100.00;98235.22;5072803;28;20052;-64
2023/10/20 02:18:41;;;;;;;15.23;8.70;;;;;;;13.84;100.00;98221.09;5072317;28;20524;-64
2023/10/20 02:21:29;;;;;;;15.98;7.88;;;;;;;13.82;100.00;98213.22;5072839;28;20045;-63
2023/10/20 02:24:17;;;;;;;11.80;7.78;;;;;;;13.81;100.00;98217.13;5069291;28;20057;-64
2023/10/20 02:27:05;;;;;;;16.67;10.48;;;;;;;13.84;100.00;98229.31;5058829;28;20041;-64
2023/10/20 02:29:55;;;;;;;13.20;8.85;;;;;;;13.83;100.00;98223.03;5071535;28;20071;-64
2023/10/20 02:32:45;;;;;;;14.82;8.52;;;;;;;13.80;100.00;98214.72;5044452;28;20052;-65
2023/10/20 02:35:33;;;;;;;14.95;8.57;;;;;;;13.79;100.00;98196.72;5031067;28;20036;-64
2023/10/20 02:38:21;;;;;;;13.25;8.45;;;;;;;13.78;100.00;98193.22;5057138;28;20059;-64
2023/10/20 02:41:10;;;;;;;11.82;8.32;;;;;;;13.77;100.00;98182.59;5031754;28;20045;-63
2023/10/20 02:43:59;;;;;;;15.90;9.07;;;;;;;13.75;100.00;98185.69;5038338;28;20057;-64
2023/10/20 02:46:47;;;;;;;13.57;9.35;;;;;;;13.75;100.00;98171.22;5052718;28;20059;-66
2023/10/20 02:49:35;;;;;;;14.55;9.55;;;;;;;13.76;100.00;98167.34;5038468;28;20060;-65
2023/10/20 02:52:24;;;;;;;13.95;8.48;;;;;;;13.76;100.00;98150.94;5025033;28;20145;-64
2023/10/20 02:55:14;;;;;;;13.23;8.63;;;;;;;13.76;100.00;98159.13;5023950;28;20045;-64
2023/10/20 02:58:01;;;;;;;14.27;9.18;;;;;;;13.75;100.00;98141.91;5038912;28;20094;-63
2023/10/20 03:00:51;;;;;;;16.42;9.48;;;;;;;13.76;100.00;98131.78;5062299;28;20125;-64
2023/10/20 03:03:40;;;;;;;16.45;9.88;;;;;;;13.74;100.00;98134.84;5058071;28;20043;-65
2023/10/20 03:06:29;;;;;;;13.15;8.65;;;;;;;13.73;100.00;98133.25;5072435;28;20052;-64
2023/10/20 03:09:17;;;;;;;13.20;9.05;;;;;;;13.72;100.00;98126.19;5071738;28;20055;-64
2023/10/20 03:12:05;;;;;;;14.20;8.75;;;;;;;13.70;100.00;98120.28;5040277;28;20530;-64
2023/10/20 03:14:53;;;;;;;14.32;8.60;;;;;;;13.70;100.00;98105.81;5019251;28;20048;-64
2023/10/20 03:17:42;;;;;;;14.85;8.95;;;;;;;13.71;100.00;98096.44;5057225;28;20459;-64
2023/10/20 03:20:32;;;;;;;12.10;8.40;;;;;;;13.69;100.00;98094.09;5072156;28;20515;-65
2023/10/20 03:23:21;;;;;;;12.15;8.60;;;;;;;13.71;100.00;98090.97;5072559;28;20079;-65
2023/10/20 03:26:13;;;;;;;14.20;8.95;;;;;;;13.72;100.00;98092.56;5038309;28;20067;-64
2023/10/20 03:29:01;;;;;;;15.48;9.70;;;;;;;13.72;100.00;98101.56;5036694;28;20051;-63
2023/10/20 03:31:49;;;;;;;13.35;9.15;;;;;;;13.72;100.00;98100.78;5063137;28;20190;-64
2023/10/20 03:34:37;;;;;;;13.43;9.60;;;;;;;13.72;100.00;98090.63;5072019;28;20058;-63
2023/10/20 03:37:25;;;;;;;14.80;9.63;;;;;;;13.72;100.00;98092.56;5044109;28;20083;-63
2023/10/20 03:40:13;;;;;;;14.30;9.50;;;;;;;13.70;100.00;98081.19;5058164;28;20041;-63
2023/10/20 03:43:11;;;;;;;14.02;10.27;;;;;;;13.71;100.00;98067.16;5056558;28;20048;-64
2023/10/20 03:46:00;;;;;;;14.57;9.07;;;;;;;13.71;100.00;98063.59;5072316;28;20389;-63
2023/10/20 03:48:48;;;;;;;16.65;9.98;;;;;;;13.73;100.00;98058.56;5071673;28;20275;-64
2023/10/20 03:51:37;;;;;;;13.88;10.63;;;;;;;13.72;100.00;98060.53;5056905;28;20049;-64
2023/10/20 03:54:25;;;;;;;14.45;9.48;;;;;;;13.72;100.00;98066.00;5073377;28;20049;-64
2023/10/20 03:57:15;;;;;;;13.60;10.73;;;;;;;13.74;100.00;98073.84;5060844;28;20040;-64
2023/10/20 04:00:15;;;;;;;14.02;10.07;;;;;;;13.74;100.00;98063.69;5043220;28;20574;-63
2023/10/20 04:03:03;;;;;;;16.08;11.00;;;;;;;13.71;100.00;98041.72;5061795;28;20055;-63
2023/10/20 04:05:52;;;;;;;15.90;11.75;;;;;;;13.70;100.00;98029.97;5073692;28;20064;-63
2023/10/20 04:08:41;;;;;;;17.45;12.45;;;;;;;13.64;100.00;98032.22;5059967;28;20052;-63
2023/10/20 04:11:31;;;;;;;16.77;12.10;;;;;;;13.64;100.00;98043.16;5091510;28;20041;-60
2023/10/20 04:14:20;;;;;;;21.92;12.75;;;;;;;13.66;100.00;98042.00;5089898;28;20056;-65
2023/10/20 04:17:08;;;;;;;18.85;12.57;;;;;;;13.64;100.00;98034.16;5093304;28;20048;-60
2023/10/20 04:19:56;;;;;;;16.52;11.98;;;;;;;13.63;100.00;98025.13;5060532;28;20073;-63
2023/10/20 04:22:49;;;;;;;16.70;11.65;;;;;;;13.64;100.00;98010.31;5062435;28;20041;-58
2023/10/20 04:25:39;;;;;;;15.63;10.73;;;;;;;13.67;100.00;98008.03;5092385;28;20128;-58
2023/10/20 04:28:41;;;;;;;17.48;12.30;;;;;;;13.64;100.00;98002.13;5078550;28;20075;-57
2023/10/20 04:59:08;;;;;;;16.65;12.93;;;;;;;13.67;100.00;97915.78;5069035;28;20443;-64
2023/10/20 05:02:10;;;;;;;18.90;12.13;;;;;;;13.66;100.00;97913.41;5066837;28;20044;-64
2023/10/20 05:05:01;;;;;;;18.85;12.98;;;;;;;13.64;100.00;97911.81;5073540;28;20107;-63
2023/10/20 05:07:51;;;;;;;16.65;12.93;;;;;;;13.65;100.00;97904.41;5067797;28;20049;-64
2023/10/20 05:10:39;;;;;;;20.60;13.02;;;;;;;13.64;100.00;97900.88;5066121;28;20129;-63
2023/10/20 05:13:32;;;;;;;17.38;13.25;;;;;;;13.62;100.00;97886.78;5051613;28;20053;-63
2023/10/20 05:16:22;;;;;;;16.98;13.05;;;;;;;13.62;100.00;97884.03;5076650;28;20059;-62
2023/10/20 05:19:10;;;;;;;19.40;13.48;;;;;;;13.63;100.00;97893.81;5073314;28;20131;-63
2023/10/20 05:21:59;;;;;;;14.60;10.77;;;;;;;13.65;100.00;97890.72;5068602;28;20040;-64
2023/10/20 05:24:47;;;;;;;16.45;12.73;;;;;;;13.69;100.00;97896.28;5072284;28;20049;-64
2023/10/20 05:27:35;;;;;;;16.13;12.60;;;;;;;13.70;100.00;97881.44;5066925;28;20051;-63
2023/10/20 05:30:23;;;;;;;18.98;13.30;;;;;;;13.66;100.00;97866.88;4719315;28;10000113;-63
2023/10/20 05:33:12;;;;;;;17.08;12.82;;;;;;;13.63;100.00;97866.44;5071596;28;20508;-65
2023/10/20 05:36:04;;;;;;;15.52;12.55;;;;;;;13.62;100.00;97864.88;5056163;28;20055;-63
2023/10/20 05:38:52;;;;;;;15.98;12.60;;;;;;;13.64;100.00;97864.53;5070387;28;20094;-63
2023/10/20 05:41:41;;;;;;;15.82;12.52;;;;;;;13.62;100.00;97881.28;5050055;28;20080;-62
2023/10/20 05:44:33;;;;;;;13.32;11.25;;;;;;;13.63;100.00;97882.88;5069602;28;20045;-64
2023/10/20 05:47:21;;;;;;;15.70;11.63;;;;;;;13.65;100.00;97890.72;5070767;28;20045;-62
2023/10/20 05:50:10;;;;;;;15.75;10.98;;;;;;;13.69;100.00;97899.81;5043298;28;20041;-64
2023/10/20 05:52:58;;;;;;;15.20;12.13;;;;;;;13.71;100.00;97883.00;5070484;28;20048;-63
2023/10/20 05:55:46;;;;;;;15.75;12.05;;;;;;;13.72;100.00;97876.41;5069111;28;20474;-65
2023/10/20 05:58:34;;;;;;;14.07;11.00;;;;;;;13.74;100.00;97876.84;5054233;28;20071;-62
2023/10/20 06:01:23;;;;;;;14.85;12.48;;;;;;;13.74;100.00;97876.84;5049551;28;20041;-64
2023/10/20 06:04:11;;;;;;;14.13;11.57;;;;;;;13.74;100.00;97877.63;5070572;28;20496;-64
2023/10/20 06:06:59;;;;;;;17.48;11.85;;;;;;;13.74;100.00;97865.88;5057122;28;20048;-65
2023/10/20 06:09:49;;;;;;;15.77;12.73;;;;;;;13.71;100.00;97863.84;5035304;28;20135;-64
2023/10/20 06:12:38;;;;;;;16.40;12.55;;;;;;;13.69;100.00;97861.50;5054584;28;20112;-65
2023/10/20 06:15:26;;;;;;;17.30;11.75;;;;;;;13.67;100.00;97841.91;5048696;28;20194;-66
2023/10/20 06:18:14;;;;;;;13.50;10.85;;;;;;;13.67;100.00;97839.19;5048942;28;20137;-64
2023/10/20 06:21:19;;;;;;;12.70;9.75;;;;;;;13.69;100.00;97836.88;5055513;28;20604;-63
2023/10/20 06:24:11;;;;;;;13.10;11.23;;;;;;;13.69;100.00;97853.28;5039474;28;20448;-65
2023/10/20 06:27:02;;;;;;;14.13;11.50;;;;;;;13.69;100.00;97869.72;5056478;28;20435;-64
2023/10/20 06:30:05;;;;;;;12.05;9.00;;;;;;;13.69;100.00;97868.94;5058939;28;20169;-67
2023/10/20 06:32:56;;;;;;;14.63;11.07;;;;;;;13.68;100.00;97861.84;5061406;28;20044;-62
2023/10/20 06:35:50;;;;;;;17.02;10.23;;;;;;;13.66;100.00;97839.53;5057847;28;20044;-63
2023/10/20 06:41:34;;;;;;;15.45;12.18;;;;;;;13.60;100.00;97839.03;5058886;28;20404;-59
2023/10/20 06:44:23;;;;;;;14.68;12.15;;;;;;;13.54;100.00;97851.41;5058340;28;20056;-60
2023/10/20 06:47:11;;;;;;;17.00;11.63;;;;;;;13.54;100.00;97852.22;5072309;28;20488;-62
2023/10/20 06:49:59;;;;;;;15.68;11.30;;;;;;;13.53;100.00;97845.16;5073431;28;20182;-66
2023/10/20 06:52:47;;;;;;;15.52;12.70;;;;;;;13.51;100.00;97854.88;5071705;28;20052;-65
2023/10/20 06:55:35;;;;;;;16.45;10.90;;;;;;;13.48;100.00;97839.19;5071279;28;20052;-65
2023/10/20 06:58:43;;;;;;;16.58;10.77;;;;;;;13.47;100.00;97841.16;5059293;28;20043;-65
2023/10/20 07:01:35;;;;;;;13.48;10.65;;;;;;;13.50;100.00;97836.91;5044057;28;20456;-65
2023/10/20 07:04:24;;;;;;;12.70;9.15;;;;;;;13.46;100.00;97834.06;5056823;28;20047;-65
2023/10/20 07:07:15;;;;;;;15.90;11.00;;;;;;;13.44;100.00;97830.91;5071791;28;20056;-65
2023/10/20 07:10:03;;;;;;;13.25;9.30;;;;;;;13.43;100.00;97821.13;5039748;28;20041;-66
2023/10/20 07:12:52;;;;;;;11.63;8.25;;;;;;;13.40;100.00;97828.09;5053226;28;20136;-65
2023/10/20 07:15:40;;;;;;;14.43;9.63;;;;;;;13.39;100.00;97825.72;5057062;28;20420;-66
2023/10/20 07:18:28;;;;;;;16.75;10.27;;;;;;;13.37;100.00;97819.81;5071805;28;20045;-66
2023/10/20 07:21:16;;;;;;;17.15;10.45;;;;;;;13.37;100.00;97822.56;5072340;28;20056;-66
2023/10/20 07:24:04;;;;;;;12.93;9.57;;;;;;;13.34;100.00;97820.56;5055711;28;20087;-68
2023/10/20 07:26:53;;;;;;;16.55;9.70;;;;;;;13.32;100.00;97814.66;5070489;28;20105;-66
2023/10/20 07:29:41;;;;;;;13.15;9.65;;;;;;;13.31;100.00;97813.06;5045368;28;20120;-66
2023/10/20 07:32:34;;;;;;;14.95;9.95;;;;;;;13.31;100.00;97813.84;5071265;28;20044;-66
2023/10/20 07:35:23;;;;;;;16.98;10.18;;;;;;;13.30;100.00;97814.22;5054951;28;20041;-66
2023/10/20 07:38:12;;;;;;;14.88;9.98;;;;;;;13.25;100.00;97815.25;5041213;28;20041;-66
2023/10/20 07:41:09;;;;;;;16.55;8.90;;;;;;;13.21;100.00;97809.72;5071357;28;20079;-66
2023/10/20 07:43:58;;;;;;;14.63;9.88;;;;;;;13.20;100.00;97819.09;5055035;28;20041;-66
2023/10/20 07:46:46;;;;;;;13.15;8.45;;;;;;;13.21;100.00;97823.41;5029140;28;20041;-65
2023/10/20 07:49:34;;;;;;;14.00;9.35;;;;;;;13.20;100.00;97816.34;5071419;28;20175;-66
2023/10/20 07:52:22;;;;;;;13.48;8.15;;;;;;;13.19;100.00;97808.50;5066101;28;20045;-65
2023/10/20 07:55:10;;;;;;;11.98;7.88;;;;;;;13.16;100.00;97810.00;5064637;28;20041;-67
2023/10/20 07:57:58;;;;;;;11.85;8.10;;;;;;;13.10;100.00;97800.50;5037725;28;20067;-66
2023/10/20 08:00:46;;;;;;;11.15;8.00;;;;;;;13.10;100.00;97795.03;5056142;28;20186;-66
2023/10/20 08:03:35;;;;;;;11.27;7.38;;;;;;;13.10;100.00;97800.50;5057937;28;20052;-66
2023/10/20 08:06:24;;;;;;;11.00;7.03;;;;;;;13.09;100.00;97793.47;5056328;28;20519;-66
2023/10/20 08:09:14;;;;;;;12.32;7.05;;;;;;;13.05;100.00;97784.41;5058976;28;20048;-66
2023/10/20 08:12:02;;;;;;;10.18;7.03;;;;;;;13.06;100.00;97776.97;5057915;28;20439;-65
2023/10/20 08:14:50;;;;;;;11.00;6.93;;;;;;;13.07;100.00;97773.91;5066639;28;20086;-67
2023/10/20 08:17:38;;;;;;;8.85;6.25;;;;;;;13.02;100.00;97782.38;5070584;28;20049;-67
2023/10/20 08:20:26;;;;;;;10.05;6.38;;;;;;;13.05;100.00;97786.34;5068872;28;20488;-67
2023/10/20 08:23:15;;;;;;;13.13;5.93;;;;;;;13.00;100.00;97788.19;5070212;28;20045;-65
2023/10/20 08:26:07;;;;;;;10.25;6.07;;;;;;;12.98;100.00;97789.72;5068739;28;20044;-65
2023/10/20 08:28:55;;;;;;;11.00;6.50;;;;;;;12.94;100.00;97788.84;5059027;28;20462;-66
2023/10/20 08:31:43;;;;;;;8.15;5.60;;;;;;;12.86;100.00;97790.63;5071538;28;20124;-66
2023/10/20 08:34:32;;;;;;;10.43;5.60;;;;;;;12.88;100.00;97790.28;5070962;28;20123;-65
2023/10/20 08:37:20;;;;;;;8.52;5.28;;;;;;;12.86;100.00;97792.56;5078594;28;20040;-62
2023/10/20 08:40:12;;;;;;;8.93;5.20;;;;;;;12.85;100.00;97799.19;5076928;28;20090;-62
2023/10/20 08:43:04;;;;;;;6.97;4.70;;;;;;;12.82;100.00;97805.34;5087768;28;20052;-63
2023/10/20 08:45:53;;;;;;;8.85;4.78;;;;;;;12.81;100.00;97801.06;5052333;28;20056;-64
2023/10/20 08:48:42;;;;;;;14.38;5.18;;;;;;;12.79;100.00;97793.22;5092302;28;20052;-60
2023/10/20 08:51:31;;;;;;;7.63;4.22;;;;;;;12.82;100.00;97788.97;5084501;28;20048;-59
2023/10/20 08:54:19;;;;;;;5.63;3.70;;;;;;;12.78;100.00;97789.69;5073582;28;20488;-63
2023/10/20 08:57:08;;;;;;;7.60;4.07;;;;;;;12.74;100.00;97794.28;5060905;28;20048;-65
2023/10/20 08:59:56;;;;;;;6.68;3.75;;;;;;;12.67;100.00;97783.19;5074221;28;20102;-64
2023/10/20 09:02:44;;;;;;;4.53;3.15;;;;;;;12.66;100.00;97792.53;5046576;28;20044;-66
2023/10/20 09:05:32;;;;;;;5.85;3.20;;;;;;;12.64;100.00;97783.91;5074104;28;20048;-64
2023/10/20 09:08:20;;;;;;;9.30;4.10;;;;;;;12.68;100.00;97784.78;5073938;28;20050;-65
2023/10/20 09:11:09;;;;;;;4.18;2.83;;;;;;;12.64;100.00;97789.38;5065859;28;20045;-65
2023/10/20 09:13:58;;;;;;;3.75;2.70;;;;;;;12.64;100.00;97789.38;5068047;28;20055;-65
2023/10/20 09:16:47;;;;;;;6.32;2.70;;;;;;;12.62;100.00;97788.94;5027132;28;20505;-65
2023/10/20 09:19:35;;;;;;;4.68;2.55;;;;;;;12.61;100.00;97784.63;5063664;28;20052;-65
2023/10/20 09:22:28;;;;;;;6.28;2.55;;;;;;;12.55;100.00;97792.31;5075911;28;20525;-65
2023/10/20 09:25:16;;;;;;;2.85;2.22;;;;;;;12.54;100.00;97795.41;5074159;28;20158;-65
2023/10/20 09:28:05;;;;;;;5.68;2.38;;;;;;;12.51;100.00;97785.19;5046911;28;20063;-67
2023/10/20 09:30:54;;;;;;;5.80;2.45;;;;;;;12.54;100.00;97779.00;5040716;28;20080;-65
2023/10/20 09:33:42;;;;;;;4.20;2.00;;;;;;;12.52;100.00;97782.09;5028437;28;20088;-66
2023/10/20 09:36:31;;;;;;;5.32;3.08;;;;;;;12.52;100.00;97765.69;5073963;28;20527;-65
2023/10/20 09:39:33;;;;;;;3.60;1.85;;;;;;;12.55;100.00;97775.13;5060280;28;20049;-66
2023/10/20 09:42:25;;;;;;;3.72;2.38;;;;;;;12.55;100.00;97781.38;5059932;28;20051;-66
2023/10/20 09:45:17;;;;;;;4.10;2.15;;;;;;;12.55;100.00;97786.03;5057540;28;20041;-66
2023/10/20 09:48:15;;;;;;;3.97;2.00;;;;;;;12.53;100.00;97780.94;5066763;28;20045;-66
2023/10/20 09:51:04;;;;;;;4.22;2.45;;;;;;;12.50;100.00;97773.44;5041301;28;20401;-66
2023/10/20 09:53:53;;;;;;;4.72;2.83;;;;;;;12.48;100.00;97780.41;5050009;28;20055;-66
2023/10/20 09:56:44;;;;;;;4.43;2.22;;;;;;;12.42;100.00;97792.78;5038492;28;20072;-66
2023/10/20 09:59:32;;;;;;;3.80;2.30;;;;;;;12.41;100.00;97782.97;5060202;28;20082;-65
2023/10/20 10:02:33;;;;;;;7.15;3.15;;;;;;;12.44;100.00;97774.88;5073522;28;20510;-66
2023/10/20 10:05:23;;;;;;;3.45;1.70;;;;;;;12.49;100.00;97771.09;5073882;28;20037;-66
2023/10/20 10:08:11;;;;;;;3.92;1.88;;;;;;;12.43;100.00;97762.38;5072544;28;20416;-65
2023/10/20 10:10:59;;;;;;;2.85;1.90;;;;;;;12.34;100.00;97765.31;5072541;28;20052;-67
2023/10/20 10:13:54;;;;;;;2.15;1.80;;;;;;;12.29;100.00;97765.59;5058184;28;20057;-65
2023/10/20 10:16:53;;;;;;;3.80;2.00;;;;;;;12.35;100.00;97766.88;5058543;28;20044;-65
2023/10/20 10:19:52;;;;;;;1.98;1.70;;;;;;;12.39;100.00;97775.16;5056205;28;20514;-67
2023/10/20 10:22:42;;;;;;;1.85;1.75;;;;;;;12.36;100.00;97763.00;5040697;28;20481;-66
2023/10/20 10:25:39;;;;;;;3.70;1.92;;;;;;;12.30;100.00;97761.69;5070406;28;20401;-65
2023/10/20 10:28:27;;;;;;;3.70;1.95;;;;;;;12.26;100.00;97751.84;5041157;28;20041;-66
2023/10/20 10:31:15;;;;;;;3.15;2.00;;;;;;;12.27;100.00;97754.22;5046535;28;20181;-66
2023/10/20 10:34:05;;;;;;;2.38;2.17;;;;;;;12.26;100.00;97746.38;5059367;28;20044;-66
2023/10/20 10:36:55;;;;;;;2.35;2.08;;;;;;;12.24;100.00;97754.13;5062256;28;20472;-66
2023/10/20 10:39:43;;;;;;;2.35;2.05;;;;;;;12.21;100.00;97749.38;5072954;28;20139;-66
2023/10/20 10:42:35;;;;;;;4.03;1.92;;;;;;;12.22;100.00;97735.38;5053377;28;20045;-66
2023/10/20 10:45:31;;;;;;;53.45;30.60;;;;;;;12.29;100.00;97732.81;5028848;28;20403;-66
2023/10/20 10:48:22;;;;;;;18.00;10.90;;;;;;;12.31;100.00;97725.06;5058510;28;20535;-66
2023/10/20 10:51:11;;;;;;;26.67;16.27;;;;;;;12.35;100.00;97728.66;5023611;28;20049;-66
2023/10/20 10:53:59;;;;;;;14.07;7.30;;;;;;;12.35;100.00;97715.00;4370253;28;10001524;-66
2023/10/20 10:56:48;;;;;;;64.60;37.92;;;;;;;12.36;100.00;97713.06;5052493;28;20051;-66
2023/10/20 10:59:37;;;;;;;43.00;25.73;;;;;;;12.42;100.00;97694.47;5053618;28;20044;-67
2023/10/20 11:02:25;;;;;;;14.52;8.90;;;;;;;12.40;100.00;97699.50;5063356;28;20056;-67
2023/10/20 11:05:14;;;;;;;98.75;56.42;;;;;;;12.43;100.00;97699.56;5025381;28;20075;-67
2023/10/20 11:08:10;;;;;;;41.13;22.10;;;;;;;12.49;100.00;97689.16;5068402;28;20063;-67
2023/10/20 11:11:01;;;;;;;36.28;20.05;;;;;;;12.51;100.00;97695.84;5055281;28;20040;-67
2023/10/20 11:13:49;;;;;;;3.85;2.70;;;;;;;12.45;100.00;97683.63;5069403;28;20141;-67
2023/10/20 11:16:37;;;;;;;56.03;34.42;;;;;;;12.48;100.00;97676.66;5049509;28;20458;-67
2023/10/20 11:19:25;;;;;;;12.93;6.78;;;;;;;12.50;100.00;97664.22;5034972;28;20072;-67
2023/10/20 11:22:16;;;;;;;44.70;25.70;;;;;;;12.48;100.00;97660.25;5061097;28;20060;-66
2023/10/20 11:25:06;;;;;;;30.25;13.20;;;;;;;12.51;100.00;97670.50;5040230;28;20055;-66
2023/10/20 11:27:54;;;;;;;42.80;24.00;;;;;;;12.52;100.00;97661.91;5069035;28;20075;-66
2023/10/20 11:30:45;;;;;;;33.13;18.90;;;;;;;12.55;100.00;97654.94;5070347;28;20048;-66
2023/10/20 11:33:34;;;;;;;5.95;3.70;;;;;;;12.51;100.00;97648.66;5042695;28;20052;-66
2023/10/20 11:36:23;;;;;;;2.65;2.00;;;;;;;12.43;100.00;97652.34;5054019;28;20043;-66
2023/10/20 11:39:11;;;;;;;13.98;7.95;;;;;;;12.44;100.00;97656.69;5057147;28;20032;-66
2023/10/20 11:42:01;;;;;;;18.10;10.68;;;;;;;12.44;100.00;97654.75;5072657;28;20136;-66
2023/10/20 11:44:49;;;;;;;17.30;10.52;;;;;;;12.45;100.00;97642.66;5024282;28;20255;-66
2023/10/20 11:47:38;;;;;;;25.77;14.75;;;;;;;12.51;100.00;97637.72;5027198;28;20052;-65
2023/10/20 11:50:26;;;;;;;29.73;16.08;;;;;;;12.50;100.00;97636.13;5028308;28;20054;-66
2023/10/20 11:53:14;;;;;;;11.90;7.38;;;;;;;12.50;100.00;97633.38;5021045;28;20045;-66
2023/10/20 11:56:02;;;;;;;7.75;4.68;;;;;;;12.47;100.00;97621.25;5026854;28;20146;-66
2023/10/20 11:58:51;;;;;;;45.00;26.58;;;;;;;12.51;100.00;97622.13;5026597;28;20053;-66
2023/10/20 12:01:39;;;;;;;3.78;2.45;;;;;;;12.51;100.00;97619.38;5028073;28;20555;-66
2023/10/20 12:04:27;;;;;;;5.13;3.05;;;;;;;12.51;100.00;97616.66;5027371;28;20045;-64
2023/10/20 12:07:15;;;;;;;1.30;1.25;;;;;;;12.45;100.00;97615.34;5026926;28;20060;-67
2023/10/20 12:10:07;;;;;;;5.38;1.83;;;;;;;12.42;100.00;97618.81;5029384;28;20050;-66
2023/10/20 12:12:55;;;;;;;2.22;1.75;;;;;;;12.39;100.00;97614.06;5027763;28;20151;-65
2023/10/20 12:15:43;;;;;;;2.00;1.73;;;;;;;12.39;100.00;97610.53;5026355;28;20050;-66
2023/10/20 12:18:31;;;;;;;2.55;2.00;;;;;;;12.42;100.00;97607.09;5032382;28;20059;-65
2023/10/20 12:21:19;;;;;;;5.43;2.75;;;;;;;12.43;100.00;97604.00;5032136;28;20058;-66
2023/10/20 12:24:07;;;;;;;7.78;3.95;;;;;;;12.43;100.00;97600.47;5031735;28;20564;-64
2023/10/20 12:26:56;;;;;;;7.15;3.35;;;;;;;12.45;100.00;97596.25;5030523;28;20045;-64
2023/10/20 12:29:44;;;;;;;4.75;3.00;;;;;;;12.44;100.00;97602.88;5030585;28;20139;-64
2023/10/20 12:32:32;;;;;;;7.60;3.85;;;;;;;12.42;100.00;97588.00;5024135;28;20046;-65
2023/10/20 12:35:20;;;;;;;11.32;6.03;;;;;;;12.42;100.00;97594.22;5032530;28;20409;-64
2023/10/20 12:38:09;;;;;;;6.20;3.33;;;;;;;12.44;100.00;97596.63;5030233;28;20132;-64
2023/10/20 12:40:56;;;;;;;8.23;4.65;;;;;;;12.43;100.00;97605.94;5029230;28;20045;-63
2023/10/20 12:43:47;;;;;;;9.50;5.30;;;;;;;12.44;100.00;97602.06;5039567;28;20084;-63
2023/10/20 12:46:36;;;;;;;2.22;1.98;;;;;;;12.44;100.00;97591.16;5049639;28;20061;-64
2023/10/20 12:49:24;;;;;;;4.55;2.65;;;;;;;12.39;100.00;97596.88;5013575;28;20522;-65
2023/10/20 12:52:15;;;;;;;21.23;11.63;;;;;;;12.36;100.00;97598.38;5014819;28;20509;-64
2023/10/20 12:55:05;;;;;;;5.88;3.28;;;;;;;12.39;100.00;97588.69;5033156;28;20390;-64
2023/10/20 12:57:54;;;;;;;2.70;2.30;;;;;;;12.41;100.00;97600.03;5021245;28;20068;-64
2023/10/20 13:00:42;;;;;;;8.05;3.35;;;;;;;12.42;100.00;97596.19;5026471;28;20069;-61
2023/10/20 13:03:30;;;;;;;12.02;6.90;;;;;;;12.42;100.00;97607.09;5019806;28;20134;-63
2023/10/20 13:06:18;;;;;;;8.18;4.97;;;;;;;12.39;100.00;97610.53;5043907;28;20046;-63
2023/10/20 13:09:07;;;;;;;12.55;6.63;;;;;;;12.37;100.00;97610.91;5037033;28;20065;-61
2023/10/20 13:11:57;;;;;;;12.98;7.60;;;;;;;12.38;100.00;97601.56;5028055;28;20045;-64
2023/10/20 13:14:45;;;;;;;4.05;3.15;;;;;;;12.34;100.00;97606.97;5017391;28;20472;-64
2023/10/20 13:17:33;;;;;;;3.65;2.60;;;;;;;12.38;100.00;97612.47;5047723;28;20041;-64
2023/10/20 13:20:22;;;;;;;8.35;4.65;;;;;;;12.35;100.00;97611.25;5020177;28;20494;-65
2023/10/20 13:23:11;;;;;;;15.27;8.57;;;;;;;12.40;100.00;97609.41;5012538;28;20137;-65
2023/10/20 13:26:06;;;;;;;9.80;5.90;;;;;;;12.46;100.00;97616.13;5015251;28;20049;-65
2023/10/20 13:28:54;;;;;;;4.53;2.90;;;;;;;12.47;100.00;97615.00;5027677;28;20486;-65